Time,TemperatureC,DewpointC,PressurehPa,WindDirection,WindDirectionDegrees,WindSpeedKMH,WindSpeedGustKMH,Humidity,HourlyPrecipMM,Conditions,Clouds,dailyrainMM,SolarRadiationWatts/m^2,UVIndex,SoftwareType,DateUTC
2022-09-27 00:04:21,9.4,10.7,993.4,South,182,2.1,4.6,84.2,0.0,,,0.0,2,0,n/a,2022-09-26T22:04:21Z
2022-09-27 00:07:20,9.4,10.7,993.4,South,180,1.8,2,84.4,0.0,,,0.0,2,0,n/a,2022-09-26T22:07:20Z
2022-09-27 00:13:21,9.4,10.7,993.4,SSE,157,2.2,3.2,84.6,0.0,,,0.0,2,0,n/a,2022-09-26T22:13:21Z
2022-09-27 00:19:20,9.4,10.8,993.1,South,182,3.2,3.8,84.5,0.0,,,0.0,2,0,n/a,2022-09-26T22:19:20Z
2022-09-27 00:22:21,9.4,10.7,993.1,WSW,238,10,12.1,84.8,0.0,,,0.0,2,0,n/a,2022-09-26T22:22:21Z
2022-09-27 00:28:20,9.6,10.8,992.9,SSW,207,8.4,9.4,85.2,0.0,,,0.0,2,0,n/a,2022-09-26T22:28:20Z
2022-09-27 00:34:20,9.6,10.8,992.9,SSW,193,10.2,12.7,85.5,0.0,,,0.0,2,0,n/a,2022-09-26T22:34:20Z
2022-09-27 00:37:20,9.6,10.8,992.9,South,191,8.5,8.6,85.3,0.0,,,0.0,2,0,n/a,2022-09-26T22:37:20Z
2022-09-27 00:43:16,9.6,10.8,992.9,SW,225,11.5,11.8,85.7,0.0,,,0.0,2,0,n/a,2022-09-26T22:43:16Z
2022-09-27 00:49:21,9.5,10.9,992.9,South,190,8,10.9,85.7,0.0,,,0.0,2,0,n/a,2022-09-26T22:49:21Z
2022-09-27 00:52:20,9.5,10.9,992.9,West,270,9.8,10.9,85.6,0.0,,,0.0,0,0,n/a,2022-09-26T22:52:20Z
2022-09-27 00:58:21,9.5,10.8,992.9,North,0,14.6,18.2,86,0.0,,,0.5,0,0,n/a,2022-09-26T22:58:21Z
2022-09-27 01:04:20,9.4,10.8,992.6,SSW,202,10,14.2,86.1,0.0,,,0.5,2,0,n/a,2022-09-26T23:04:20Z
2022-09-27 01:07:17,9.4,10.9,992.3,SW,225,1.8,1.9,85.9,0.0,,,0.5,0,0,n/a,2022-09-26T23:07:17Z
2022-09-27 01:13:21,9.4,10.8,992.3,West,276,6.5,8.4,85.9,0.0,,,0.5,0,0,n/a,2022-09-26T23:13:21Z
2022-09-27 01:19:16,9.3,10.8,992.3,SSW,201,8.5,9.7,86.4,0.0,,,0.5,2,0,n/a,2022-09-26T23:19:16Z
2022-09-27 01:22:20,9.3,10.9,992.1,WSW,258,3.2,3.3,86.9,0.0,,,0.5,2,0,n/a,2022-09-26T23:22:20Z
2022-09-27 01:28:20,9.3,10.9,992.1,SSW,194,8,11,86.9,0.0,,,0.5,2,0,n/a,2022-09-26T23:28:20Z
2022-09-27 01:34:17,9.3,10.9,991.8,SSW,202,7.3,9.3,87.2,0.0,,,0.5,2,0,n/a,2022-09-26T23:34:17Z
2022-09-27 01:37:21,9.3,10.9,991.8,South,180,9.9,10.7,87.6,0.0,,,0.5,0,0,n/a,2022-09-26T23:37:21Z
2022-09-27 01:43:20,9.2,10.9,991.8,West,265,5.2,7.1,87.4,0.0,,,1.0,2,0,n/a,2022-09-26T23:43:20Z
2022-09-27 01:49:20,9.2,10.9,991.8,SSW,204,8.4,9.9,87.7,0.0,,,1.0,2,0,n/a,2022-09-26T23:49:20Z
2022-09-27 01:52:21,9.1,10.9,991.8,WSW,258,7.8,8.5,87.6,0.0,,,1.0,2,0,n/a,2022-09-26T23:52:21Z
2022-09-27 01:58:16,9.1,10.8,991.8,South,172,5.9,11.6,87.3,0.0,,,1.0,2,0,n/a,2022-09-26T23:58:16Z
2022-09-27 02:04:21,9.1,10.9,991.3,South,180,5.2,9.3,88,0.0,,,1.5,0,0,n/a,2022-09-27T00:04:21Z
2022-09-27 02:07:20,9,10.8,991.3,South,190,6.7,7.1,87.7,0.0,,,1.5,2,0,n/a,2022-09-27T00:07:20Z
2022-09-27 02:13:19,9.1,10.8,991.3,South,180,6.2,7,87.8,0.0,,,1.5,0,0,n/a,2022-09-27T00:13:19Z
2022-09-27 02:19:21,9.1,10.8,991.3,South,187,6.8,7.3,87.7,0.0,,,1.5,0,0,n/a,2022-09-27T00:19:21Z
2022-09-27 02:22:21,9.1,10.9,991.3,WSW,247,11,11.2,88.4,0.0,,,1.5,0,0,n/a,2022-09-27T00:22:21Z
2022-09-27 02:28:17,9,10.9,991.3,SSW,199,7.4,9.9,88.5,0.0,,,1.5,2,0,n/a,2022-09-27T00:28:17Z
2022-09-27 02:34:21,9,10.8,991.0,South,179,4,5,88.2,0.0,,,1.5,2,0,n/a,2022-09-27T00:34:21Z
2022-09-27 02:37:20,9.1,10.9,991.0,WSW,237,4.7,5.2,88.1,0.0,,,1.5,0,0,n/a,2022-09-27T00:37:20Z
2022-09-27 02:43:20,9,11,991.0,South,191,2.9,4.4,88.2,0.0,,,1.5,2,0,n/a,2022-09-27T00:43:20Z
2022-09-27 02:49:21,9,10.8,990.8,South,191,3.4,5.5,88.1,0.0,,,1.5,2,0,n/a,2022-09-27T00:49:21Z
2022-09-27 02:52:20,9,10.9,990.8,SSW,193,6.4,7.7,88.2,0.0,,,2.0,0,0,n/a,2022-09-27T00:52:20Z
2022-09-27 02:58:20,9,10.8,990.8,South,171,3.1,4.1,88,0.0,,,2.0,0,0,n/a,2022-09-27T00:58:20Z
2022-09-27 03:04:20,9,10.9,990.8,SSW,200,5.5,7.1,88.2,0.0,,,2.0,2,0,n/a,2022-09-27T01:04:20Z
2022-09-27 03:07:21,9,10.8,990.5,West,268,7.1,7.5,88.5,0.0,,,2.0,2,0,n/a,2022-09-27T01:07:21Z
2022-09-27 03:13:20,9,10.9,990.5,SW,225,6.6,8.1,88.5,0.0,,,2.0,2,0,n/a,2022-09-27T01:13:20Z
2022-09-27 03:19:20,9,10.9,990.2,SW,214,7.6,9.7,88.7,0.0,,,2.5,0,0,n/a,2022-09-27T01:19:20Z
2022-09-27 03:22:17,9,10.9,990.2,North,0,5.5,5.5,88.4,0.0,,,2.5,0,0,n/a,2022-09-27T01:22:17Z
2022-09-27 03:28:20,9,10.9,990.2,SSW,192,9.1,10.4,88.5,0.0,,,2.5,2,0,n/a,2022-09-27T01:28:20Z
2022-09-27 03:34:20,9,10.9,990.2,SW,225,7.7,9.3,88.7,0.0,,,2.5,2,0,n/a,2022-09-27T01:34:20Z
2022-09-27 03:37:21,9,10.8,990.2,SSW,203,5.7,5.8,88.6,0.0,,,2.5,2,0,n/a,2022-09-27T01:37:21Z
2022-09-27 03:43:16,9,10.8,990.2,SW,217,3.3,3.7,88.2,0.0,,,2.5,2,0,n/a,2022-09-27T01:43:16Z
2022-09-27 03:49:20,9,10.7,990.0,SSW,202,5.8,10.5,87.9,0.0,,,3.0,2,0,n/a,2022-09-27T01:49:20Z
2022-09-27 03:52:21,8.9,10.8,989.7,South,191,8.2,8.3,89.2,0.0,,,3.0,2,0,n/a,2022-09-27T01:52:21Z
2022-09-27 03:58:20,8.9,10.8,989.7,SSW,200,6.3,7.8,89.1,0.0,,,3.0,2,0,n/a,2022-09-27T01:58:20Z
2022-09-27 04:04:21,8.9,10.8,989.7,South,184,6.9,9.4,88.6,0.0,,,3.0,2,0,n/a,2022-09-27T02:04:21Z
2022-09-27 04:07:20,8.9,10.9,989.7,West,260,10.6,11.3,89.1,0.0,,,3.0,2,0,n/a,2022-09-27T02:07:20Z
2022-09-27 04:13:20,8.9,10.9,989.5,SW,227,4,8,88.9,0.0,,,3.0,2,0,n/a,2022-09-27T02:13:20Z
2022-09-27 04:19:21,8.9,10.8,989.7,South,187,4.3,5.7,88.7,0.0,,,3.0,2,0,n/a,2022-09-27T02:19:21Z
2022-09-27 04:22:20,8.9,10.8,989.5,SW,225,7.1,7.8,88.8,0.0,,,3.0,0,0,n/a,2022-09-27T02:22:20Z
2022-09-27 04:28:20,8.9,10.8,989.5,SW,225,6.1,7.9,89.1,0.0,,,3.0,2,0,n/a,2022-09-27T02:28:20Z
2022-09-27 04:34:21,8.9,10.8,989.5,SSW,206,4.9,5.9,88.8,0.0,,,3.0,2,0,n/a,2022-09-27T02:34:21Z
2022-09-27 04:37:20,8.9,10.8,989.5,South,180,15.7,16.6,88.8,0.0,,,3.0,0,0,n/a,2022-09-27T02:37:20Z
2022-09-27 04:43:21,8.8,10.7,989.5,SW,218,9,12.5,88.8,0.0,,,3.0,2,0,n/a,2022-09-27T02:43:21Z
2022-09-27 04:49:21,8.8,10.6,989.2,SSW,196,5.8,7.2,88.6,0.0,,,3.0,2,0,n/a,2022-09-27T02:49:21Z
2022-09-27 04:52:21,8.8,10.8,989.2,SSW,195,5,5.5,89,0.0,,,3.0,2,0,n/a,2022-09-27T02:52:21Z
2022-09-27 04:58:21,8.8,10.7,989.2,SSW,203,6.1,9.1,89.1,0.0,,,3.0,2,0,n/a,2022-09-27T02:58:21Z
2022-09-27 05:04:20,8.8,10.7,989.2,SW,231,8.6,17.1,89.1,0.0,,,3.0,2,0,n/a,2022-09-27T03:04:20Z
2022-09-27 05:07:21,8.9,10.7,989.2,SW,225,5.3,5.8,88.7,0.0,,,3.0,0,0,n/a,2022-09-27T03:07:21Z
2022-09-27 05:13:21,8.9,10.6,989.2,South,190,10.7,12.5,88.8,0.0,,,3.0,2,0,n/a,2022-09-27T03:13:21Z
2022-09-27 05:19:20,8.9,10.7,989.2,WNW,282,5.4,7.4,89.2,0.0,,,3.0,2,0,n/a,2022-09-27T03:19:20Z
2022-09-27 05:22:21,8.8,10.8,989.2,SW,235,6.7,7.2,89,0.0,,,3.0,0,0,n/a,2022-09-27T03:22:21Z
2022-09-27 05:28:20,8.9,10.7,989.2,WSW,240,4.1,6.5,88.9,0.0,,,3.0,2,0,n/a,2022-09-27T03:28:20Z
2022-09-27 05:34:20,8.9,10.8,989.2,SW,225,5.8,7.4,88.7,0.0,,,3.0,2,0,n/a,2022-09-27T03:34:20Z
2022-09-27 05:37:21,8.9,10.8,988.9,SW,225,15.1,17.1,89.2,0.0,,,3.0,2,0,n/a,2022-09-27T03:37:21Z
2022-09-27 05:43:20,8.9,10.7,988.9,SSW,197,5.3,6.3,88.8,0.0,,,3.6,2,0,n/a,2022-09-27T03:43:20Z
2022-09-27 05:49:20,8.9,10.7,988.7,SW,234,5.6,9.9,88.9,0.0,,,3.6,2,0,n/a,2022-09-27T03:49:20Z
2022-09-27 05:52:21,8.9,10.7,988.7,SW,225,5.5,5.7,88.9,0.0,,,3.6,0,0,n/a,2022-09-27T03:52:21Z
2022-09-27 05:58:16,8.9,10.8,988.7,South,191,9.3,12.5,89.3,0.0,,,3.6,0,0,n/a,2022-09-27T03:58:16Z
2022-09-27 06:04:21,8.9,10.7,988.7,SSW,192,4.3,5.2,89.2,0.0,,,3.6,2,0,n/a,2022-09-27T04:04:21Z
2022-09-27 06:07:20,8.9,10.8,988.7,South,180,3.6,3.9,89.3,0.0,,,3.6,2,0,n/a,2022-09-27T04:07:20Z
2022-09-27 06:13:20,8.9,10.7,988.7,SW,225,7.8,8.5,88.9,0.0,,,3.6,2,0,n/a,2022-09-27T04:13:20Z
2022-09-27 06:19:21,8.8,10.8,988.7,SSW,192,8.9,11.5,89.5,0.0,,,3.6,2,0,n/a,2022-09-27T04:19:21Z
2022-09-27 06:22:20,8.8,10.8,988.7,SSW,192,5.8,6.6,89.6,0.0,,,3.6,0,0,n/a,2022-09-27T04:22:20Z
2022-09-27 06:28:21,8.8,10.7,988.7,SW,225,7.6,11.2,89.6,0.0,,,4.1,2,0,n/a,2022-09-27T04:28:21Z
2022-09-27 06:34:21,8.8,10.8,988.7,SW,231,5.7,6.8,90,0.0,,,4.1,2,0,n/a,2022-09-27T04:34:21Z
2022-09-27 06:37:20,8.8,10.6,988.7,SW,225,7.1,8.5,90,0.0,,,4.1,2,0,n/a,2022-09-27T04:37:20Z
2022-09-27 06:43:21,8.8,10.7,988.7,SSW,199,8.5,10.1,89.7,0.0,,,4.6,2,0,n/a,2022-09-27T04:43:21Z
2022-09-27 06:49:21,8.8,10.7,988.9,WSW,243,8.1,9.8,90,0.0,,,4.6,2,0,n/a,2022-09-27T04:49:21Z
2022-09-27 06:52:21,8.8,10.6,988.9,SW,225,9,9.5,89.2,0.0,,,4.6,2,0,n/a,2022-09-27T04:52:21Z
2022-09-27 06:58:21,8.7,10.7,988.9,WNW,295,3.5,4.9,89.7,0.0,,,4.6,2,0,n/a,2022-09-27T04:58:21Z
2022-09-27 07:04:21,8.7,10.6,989.2,WSW,237,10.1,12.5,89,0.0,,,5.1,2,0,n/a,2022-09-27T05:04:21Z